Forside
METAR-TAF:

METAR-TAF

Lufthavne :

Edmonton, Alberta, Canada

Breddekreds: 53-18N, længdekreds: 113-35W, højde: 715 m

Aktuelle vejr

Denne rapport blev lavet for 59 minutter siden, kl. 08:00 UTC
Vind 2 kt fra sydsydvest
Temperatur -3°C
Fugtighed 80%
Tryk 1020 hPa
Sigt: 32.2 km
skyfri

METAR: CYEG 200800Z 21002KT 20SM SKC M03/M06 A3011 RMK SLP229

Tid: 02:59 (08:59 UTC)

Vejrudsigter

Denne rapport blev lavet for 21 minutter siden, kl. 08:38 UTC
Foreløbig gælder fra 20 på 09 UTC til 21 på 06 UTC
Vind 3 kt fra varierende retninger
Sigt: 10 km
skyfri
Fra 20 på 1400 UTC
Vind 6 kt fra sydøst
Sigt: 10 km
skyfri
Fra 21 på 0200 UTC
Vind 5 kt fra nord
Sigt: 10 km
skyfri

TAF: CYEG 200838Z 2009/2106 VRB03KT P6SM SKC FM201400 14006KT P6SM SKC FM210200 36005KT P6SM SKC RMK NXT FCST BY 201200Z

Vejrobservationer og prognoser fra mere end 4000 lufthavne (METAR og TAF).

De gule og røde prikker repræsenterer de meteorologiske stationer.

Flyt musen over at se navnet på stationen.

Så klik over at se vejr observationer og prognoser.

At skifte det kort: Klik på de grønne knapper med et sort kors for at zoome ind; på den grønne knap med en bindestreg for at zoome ud; eller på de grønne pile for tilstødende kort.


METAR-TAF: